Time;durP1;ratioP1;P1;durP2;ratioP2;P2;SDS_P1;SDS_P2;PMS_P1;PMS_P2;Temp;Humidity;BMP_temperature;BMP_pressure;BME280_temperature;BME280_humidity;BME280_pressure;Samples;Min_cycle;Max_cycle;Signal;HPM_P1;HPM_P2
2023/08/27 00:01:52;;;;;;;4.20;1.80;;;;;;;;;;5050116;28;20049;-76
2023/08/27 00:04:18;;;;;;;4.30;2.23;;;;;;;;;;5050512;28;20074;-76
2023/08/27 00:06:43;;;;;;;3.80;1.80;;;;;;;;;;5050392;28;20271;-75
2023/08/27 00:09:08;;;;;;;4.27;2.00;;;;;;;;;;5048997;28;20025;-75
2023/08/27 00:11:33;;;;;;;3.08;1.80;;;;;;;;;;5049204;28;20280;-75
2023/08/27 00:13:58;;;;;;;4.18;1.83;;;;;;;;;;5047673;28;20029;-75
2023/08/27 00:16:24;;;;;;;3.00;1.77;;;;;;;;;;5049409;28;20090;-75
2023/08/27 00:18:49;;;;;;;3.15;1.77;;;;;;;;;;5048732;28;20036;-75
2023/08/27 00:21:14;;;;;;;3.88;2.05;;;;;;;;;;5039276;28;20040;-74
2023/08/27 00:23:40;;;;;;;4.87;2.00;;;;;;;;;;5042768;28;20033;-75
2023/08/27 00:26:05;;;;;;;5.30;2.00;;;;;;;;;;5041684;28;20271;-75
2023/08/27 00:28:30;;;;;;;4.05;2.00;;;;;;;;;;5039699;28;20040;-75
2023/08/27 00:31:00;;;;;;;5.63;2.10;;;;;;;;;;5042275;28;20428;-75
2023/08/27 00:33:25;;;;;;;6.22;1.83;;;;;;;;;;5026166;28;20543;-75
2023/08/27 00:35:53;;;;;;;3.50;1.83;;;;;;;;;;5043098;28;20082;-76
2023/08/27 00:38:20;;;;;;;3.47;1.75;;;;;;;;;;5026444;28;20115;-76
2023/08/27 00:40:45;;;;;;;3.58;2.13;;;;;;;;;;5029289;28;20121;-76
2023/08/27 00:43:13;;;;;;;4.13;2.00;;;;;;;;;;5038370;28;20025;-76
2023/08/27 00:45:38;;;;;;;3.80;2.28;;;;;;;;;;5047452;28;20372;-76
2023/08/27 00:48:04;;;;;;;3.92;1.92;;;;;;;;;;5027758;28;20029;-76
2023/08/27 00:50:30;;;;;;;6.88;2.22;;;;;;;;;;5030537;28;20025;-75
2023/08/27 00:52:56;;;;;;;3.83;2.13;;;;;;;;;;5043004;28;20400;-75
2023/08/27 00:55:21;;;;;;;4.45;2.53;;;;;;;;;;5046012;28;20041;-74
2023/08/27 00:57:47;;;;;;;5.57;2.70;;;;;;;;;;5045488;28;20368;-75
2023/08/27 01:00:13;;;;;;;5.10;2.10;;;;;;;;;;5025625;28;20043;-74
2023/08/27 01:02:42;;;;;;;4.80;2.28;;;;;;;;;;5027897;28;20029;-74
2023/08/27 01:05:07;;;;;;;3.97;2.33;;;;;;;;;;5029442;28;20507;-75
2023/08/27 01:07:39;;;;;;;3.92;2.08;;;;;;;;;;5045700;28;20110;-74
2023/08/27 01:10:08;;;;;;;4.10;2.55;;;;;;;;;;5026515;28;20190;-75
2023/08/27 01:12:38;;;;;;;4.20;2.40;;;;;;;;;;5043440;28;20099;-74
2023/08/27 01:15:05;;;;;;;5.43;2.17;;;;;;;;;;5043326;28;20032;-75
2023/08/27 01:17:31;;;;;;;3.65;2.00;;;;;;;;;;5027044;28;20385;-75
2023/08/27 01:19:56;;;;;;;3.70;2.25;;;;;;;;;;5045020;28;20044;-75
2023/08/27 01:22:21;;;;;;;5.63;2.45;;;;;;;;;;5024502;28;20029;-74
2023/08/27 01:24:47;;;;;;;3.77;2.30;;;;;;;;;;5035549;28;20040;-75
2023/08/27 01:27:15;;;;;;;3.85;2.40;;;;;;;;;;5032238;28;20338;-75
2023/08/27 01:29:54;;;;;;;3.47;1.85;;;;;;;;;;5026884;28;20091;-75
2023/08/27 01:32:29;;;;;;;3.78;2.40;;;;;;;;;;5043218;28;20038;-76
2023/08/27 01:34:55;;;;;;;3.35;1.90;;;;;;;;;;5042391;28;20060;-76
2023/08/27 01:37:21;;;;;;;3.78;2.40;;;;;;;;;;5019160;28;20068;-75
2023/08/27 01:39:46;;;;;;;4.20;2.38;;;;;;;;;;5044582;28;20067;-75
2023/08/27 01:42:12;;;;;;;3.47;2.33;;;;;;;;;;5045127;28;20045;-75
2023/08/27 01:44:38;;;;;;;4.25;2.42;;;;;;;;;;5026100;28;20040;-75
2023/08/27 01:47:03;;;;;;;5.53;2.40;;;;;;;;;;5023853;28;20033;-76
2023/08/27 01:49:29;;;;;;;4.78;2.92;;;;;;;;;;5044309;28;20112;-76
2023/08/27 01:51:54;;;;;;;6.00;2.55;;;;;;;;;;5023564;28;20029;-75
2023/08/27 01:54:19;;;;;;;6.47;2.47;;;;;;;;;;5031791;28;20051;-76
2023/08/27 01:56:44;;;;;;;4.53;2.17;;;;;;;;;;5046372;28;20029;-76
2023/08/27 01:59:11;;;;;;;5.15;2.47;;;;;;;;;;5033872;28;20492;-76
2023/08/27 02:01:36;;;;;;;5.22;2.45;;;;;;;;;;5031862;28;20034;-75
2023/08/27 02:04:02;;;;;;;8.15;3.22;;;;;;;;;;5034559;28;20040;-75
2023/08/27 02:06:27;;;;;;;4.35;2.72;;;;;;;;;;5041303;28;20535;-75
2023/08/27 02:08:54;;;;;;;5.40;2.90;;;;;;;;;;5033455;28;20051;-76
2023/08/27 02:11:19;;;;;;;6.97;3.00;;;;;;;;;;5028006;28;20072;-76
2023/08/27 02:13:45;;;;;;;5.55;3.17;;;;;;;;;;5033498;28;20033;-75
2023/08/27 02:16:10;;;;;;;5.05;3.50;;;;;;;;;;5027749;28;20078;-75
2023/08/27 02:18:35;;;;;;;5.30;2.83;;;;;;;;;;5033807;28;20124;-75
2023/08/27 02:21:02;;;;;;;4.70;3.10;;;;;;;;;;5032076;28;20276;-75
2023/08/27 02:23:27;;;;;;;4.57;2.90;;;;;;;;;;5025540;28;20411;-76
2023/08/27 02:25:52;;;;;;;4.80;2.90;;;;;;;;;;5034652;28;20104;-74
2023/08/27 02:28:17;;;;;;;7.45;3.50;;;;;;;;;;5025260;28;20033;-75
2023/08/27 02:30:50;;;;;;;6.07;3.38;;;;;;;;;;5036445;28;20036;-76
2023/08/27 02:33:15;;;;;;;5.75;3.40;;;;;;;;;;5049377;28;20047;-76
2023/08/27 02:35:40;;;;;;;5.47;2.80;;;;;;;;;;5046370;28;20024;-76
2023/08/27 02:38:05;;;;;;;6.60;3.08;;;;;;;;;;5047519;28;20626;-76
2023/08/27 02:40:31;;;;;;;7.47;3.15;;;;;;;;;;5032674;28;20425;-76
2023/08/27 02:42:57;;;;;;;4.32;2.47;;;;;;;;;;5026386;28;20040;-75
2023/08/27 02:45:22;;;;;;;3.92;2.65;;;;;;;;;;5033801;28;20029;-75
2023/08/27 02:47:47;;;;;;;5.75;2.63;;;;;;;;;;5031150;28;20116;-74
2023/08/27 02:50:14;;;;;;;8.80;3.38;;;;;;;;;;5032654;28;20106;-75
2023/08/27 02:52:39;;;;;;;8.30;3.70;;;;;;;;;;5030730;28;20507;-75
2023/08/27 02:55:05;;;;;;;6.80;3.08;;;;;;;;;;5043077;28;20033;-74
2023/08/27 02:57:30;;;;;;;6.38;3.15;;;;;;;;;;5033787;28;20033;-75
2023/08/27 02:59:55;;;;;;;5.18;3.25;;;;;;;;;;5029910;28;20053;-75
2023/08/27 03:02:21;;;;;;;4.97;3.20;;;;;;;;;;5033235;28;20032;-74
2023/08/27 03:04:46;;;;;;;5.40;3.10;;;;;;;;;;5030569;28;20029;-75
2023/08/27 03:07:11;;;;;;;4.32;2.50;;;;;;;;;;5043363;28;20495;-75
2023/08/27 03:09:37;;;;;;;5.93;2.80;;;;;;;;;;5033111;28;20025;-75
2023/08/27 03:12:02;;;;;;;5.13;3.17;;;;;;;;;;5024909;28;20083;-75
2023/08/27 03:14:28;;;;;;;4.82;2.67;;;;;;;;;;5030224;28;20029;-74
2023/08/27 03:16:53;;;;;;;4.57;2.60;;;;;;;;;;5026788;28;20111;-74
2023/08/27 03:19:18;;;;;;;4.40;2.92;;;;;;;;;;5032677;28;20033;-74
2023/08/27 03:21:44;;;;;;;6.20;2.70;;;;;;;;;;5030203;28;20060;-75
2023/08/27 03:24:11;;;;;;;4.78;2.70;;;;;;;;;;5025188;28;20274;-75
2023/08/27 03:26:36;;;;;;;6.90;2.80;;;;;;;;;;5039779;28;20021;-75
2023/08/27 03:29:02;;;;;;;3.95;2.42;;;;;;;;;;5042115;28;20029;-75
2023/08/27 03:31:28;;;;;;;4.10;2.70;;;;;;;;;;5032531;28;20510;-75
2023/08/27 03:33:53;;;;;;;5.38;3.22;;;;;;;;;;5040123;28;20025;-75
2023/08/27 03:36:19;;;;;;;7.82;3.47;;;;;;;;;;5043172;28;20029;-75
2023/08/27 03:38:44;;;;;;;5.30;2.78;;;;;;;;;;5023783;28;20399;-75
2023/08/27 03:41:09;;;;;;;5.78;3.38;;;;;;;;;;5045714;28;20033;-75
2023/08/27 03:43:34;;;;;;;5.88;3.35;;;;;;;;;;5030844;28;20694;-75
2023/08/27 03:46:00;;;;;;;7.75;2.95;;;;;;;;;;5031990;28;20021;-74
2023/08/27 03:48:26;;;;;;;5.57;3.08;;;;;;;;;;5031266;28;20030;-75
2023/08/27 03:50:51;;;;;;;5.97;2.90;;;;;;;;;;5031290;28;20032;-75
2023/08/27 03:53:16;;;;;;;6.22;3.15;;;;;;;;;;5031102;28;20377;-75
2023/08/27 03:55:42;;;;;;;5.05;2.83;;;;;;;;;;5031494;28;20447;-74
2023/08/27 03:58:08;;;;;;;6.57;3.10;;;;;;;;;;5031255;28;20028;-75
2023/08/27 04:00:34;;;;;;;4.57;2.70;;;;;;;;;;5040417;28;20498;-75
2023/08/27 04:02:59;;;;;;;7.43;3.15;;;;;;;;;;5049779;28;20464;-75
2023/08/27 04:05:24;;;;;;;4.30;2.53;;;;;;;;;;5023259;28;20033;-75
2023/08/27 04:07:50;;;;;;;5.07;2.42;;;;;;;;;;5033540;28;20116;-75
2023/08/27 04:10:15;;;;;;;5.70;3.10;;;;;;;;;;5031205;28;20056;-75
2023/08/27 04:12:40;;;;;;;6.38;2.95;;;;;;;;;;5034704;28;20033;-75
2023/08/27 04:15:06;;;;;;;6.13;2.45;;;;;;;;;;5034886;28;20017;-75
2023/08/27 04:17:31;;;;;;;7.68;2.80;;;;;;;;;;5045911;28;20099;-75
2023/08/27 04:19:56;;;;;;;5.85;3.15;;;;;;;;;;5043881;28;20028;-75
2023/08/27 04:22:21;;;;;;;4.28;2.40;;;;;;;;;;5035869;28;20038;-75
2023/08/27 04:24:47;;;;;;;5.57;2.92;;;;;;;;;;5034545;28;20136;-75
2023/08/27 04:27:12;;;;;;;4.65;2.60;;;;;;;;;;5045029;28;20033;-75
2023/08/27 04:29:37;;;;;;;6.25;3.25;;;;;;;;;;5034874;28;20057;-75
2023/08/27 04:32:03;;;;;;;5.28;2.90;;;;;;;;;;5033884;28;20549;-75
2023/08/27 04:34:28;;;;;;;3.53;2.20;;;;;;;;;;5045386;28;20087;-75
2023/08/27 04:36:55;;;;;;;4.30;2.80;;;;;;;;;;5049412;28;20032;-75
2023/08/27 04:39:21;;;;;;;4.40;2.53;;;;;;;;;;5032696;28;20041;-75
2023/08/27 04:41:46;;;;;;;4.82;2.47;;;;;;;;;;5040764;28;20036;-76
2023/08/27 04:44:13;;;;;;;6.50;3.50;;;;;;;;;;5030614;28;20510;-76
2023/08/27 04:46:38;;;;;;;4.78;2.60;;;;;;;;;;5035259;28;20022;-76
2023/08/27 04:49:03;;;;;;;7.30;2.63;;;;;;;;;;5035580;28;20504;-75
2023/08/27 04:51:29;;;;;;;6.32;2.60;;;;;;;;;;5032874;28;20029;-75
2023/08/27 04:53:54;;;;;;;4.15;2.50;;;;;;;;;;5046805;28;20064;-76
2023/08/27 04:56:20;;;;;;;4.45;2.22;;;;;;;;;;5031697;28;20029;-75
2023/08/27 04:58:45;;;;;;;4.30;2.45;;;;;;;;;;5041507;28;20026;-76
2023/08/27 05:01:10;;;;;;;4.55;2.30;;;;;;;;;;5045605;28;20487;-76
2023/08/27 05:03:36;;;;;;;3.50;2.20;;;;;;;;;;5024260;28;20034;-75
2023/08/27 05:06:02;;;;;;;4.80;2.45;;;;;;;;;;5035878;28;20029;-76
2023/08/27 05:08:27;;;;;;;4.32;2.45;;;;;;;;;;5035596;28;20510;-75
2023/08/27 05:10:53;;;;;;;3.88;2.10;;;;;;;;;;5027473;28;20025;-76
2023/08/27 05:13:19;;;;;;;3.35;2.10;;;;;;;;;;5032945;28;20404;-76
2023/08/27 05:15:44;;;;;;;5.10;2.10;;;;;;;;;;5035374;28;20026;-75
2023/08/27 05:18:09;;;;;;;4.20;1.83;;;;;;;;;;5041509;28;20029;-76
2023/08/27 05:20:36;;;;;;;3.42;1.95;;;;;;;;;;5034741;28;20020;-76
2023/08/27 05:23:01;;;;;;;3.28;1.80;;;;;;;;;;5051127;28;20468;-76
2023/08/27 05:25:26;;;;;;;3.90;2.30;;;;;;;;;;5038374;28;20036;-76
2023/08/27 05:27:52;;;;;;;4.55;2.08;;;;;;;;;;5032970;28;20179;-75
2023/08/27 05:30:17;;;;;;;4.53;1.98;;;;;;;;;;5045569;28;20037;-75
2023/08/27 05:32:43;;;;;;;5.10;1.70;;;;;;;;;;5034350;28;20098;-75
2023/08/27 05:35:09;;;;;;;3.90;1.67;;;;;;;;;;5043159;28;20030;-76
2023/08/27 05:37:34;;;;;;;3.92;1.60;;;;;;;;;;5028657;28;20450;-76
2023/08/27 05:39:59;;;;;;;3.45;1.60;;;;;;;;;;5042426;28;20120;-76
2023/08/27 05:42:25;;;;;;;3.78;1.80;;;;;;;;;;5043346;28;20032;-75
2023/08/27 05:44:50;;;;;;;3.38;1.92;;;;;;;;;;5043073;28;20468;-76
2023/08/27 05:47:17;;;;;;;2.80;1.50;;;;;;;;;;5033601;28;20033;-75
2023/08/27 05:49:42;;;;;;;3.55;1.98;;;;;;;;;;5031703;28;20333;-76
2023/08/27 05:52:08;;;;;;;3.80;1.90;;;;;;;;;;5027066;28;20438;-75
2023/08/27 05:54:33;;;;;;;3.22;1.60;;;;;;;;;;5033138;28;20033;-75
2023/08/27 05:56:58;;;;;;;2.70;1.40;;;;;;;;;;5033993;28;20025;-75
2023/08/27 05:59:23;;;;;;;7.80;2.08;;;;;;;;;;5031976;28;20045;-75
2023/08/27 06:01:49;;;;;;;5.20;1.88;;;;;;;;;;5025328;28;20038;-76
2023/08/27 06:04:14;;;;;;;3.65;1.80;;;;;;;;;;5034842;28;20052;-75
2023/08/27 06:06:41;;;;;;;3.83;1.60;;;;;;;;;;5044988;28;20049;-75
2023/08/27 06:09:06;;;;;;;3.55;1.70;;;;;;;;;;5028810;28;20537;-75
2023/08/27 06:11:31;;;;;;;3.67;1.70;;;;;;;;;;5034293;28;20037;-75
2023/08/27 06:13:58;;;;;;;3.08;1.80;;;;;;;;;;5037135;28;20033;-76
2023/08/27 06:16:23;;;;;;;4.25;1.80;;;;;;;;;;5031495;28;20025;-75
2023/08/27 06:18:49;;;;;;;5.63;2.47;;;;;;;;;;5038936;28;20029;-76
2023/08/27 06:21:14;;;;;;;3.80;1.70;;;;;;;;;;5052277;28;20033;-75
2023/08/27 06:23:40;;;;;;;3.40;1.80;;;;;;;;;;5031403;28;20211;-75
2023/08/27 06:26:05;;;;;;;3.03;1.73;;;;;;;;;;5034612;28;20055;-75
2023/08/27 06:28:31;;;;;;;4.78;1.50;;;;;;;;;;5033481;28;20034;-74
2023/08/27 06:30:56;;;;;;;5.13;2.00;;;;;;;;;;5045659;28;20025;-74
2023/08/27 06:33:22;;;;;;;4.97;1.90;;;;;;;;;;5031000;28;20528;-75
2023/08/27 06:35:47;;;;;;;3.33;1.75;;;;;;;;;;5034467;28;20028;-74
2023/08/27 06:38:13;;;;;;;4.10;1.50;;;;;;;;;;5022583;28;20029;-74
2023/08/27 06:40:39;;;;;;;3.78;1.83;;;;;;;;;;5036023;28;20037;-75
2023/08/27 06:43:05;;;;;;;3.55;1.70;;;;;;;;;;5033626;28;20033;-74
2023/08/27 06:45:33;;;;;;;4.10;2.10;;;;;;;;;;5032167;28;20065;-76
2023/08/27 06:47:58;;;;;;;5.43;1.92;;;;;;;;;;5033530;28;20056;-75
2023/08/27 06:50:24;;;;;;;4.57;1.80;;;;;;;;;;5047590;28;20102;-75
2023/08/27 06:52:49;;;;;;;3.22;1.98;;;;;;;;;;5047401;28;20043;-76
2023/08/27 06:55:15;;;;;;;3.53;1.80;;;;;;;;;;5030813;28;20118;-76
2023/08/27 06:57:40;;;;;;;4.47;2.10;;;;;;;;;;5032497;28;20035;-76
2023/08/27 07:00:12;;;;;;;4.00;2.10;;;;;;;;;;5031935;28;20454;-76
2023/08/27 07:02:37;;;;;;;4.00;2.30;;;;;;;;;;5028886;28;20032;-77
2023/08/27 07:05:08;;;;;;;8.35;2.30;;;;;;;;;;5033332;28;20656;-77
2023/08/27 07:07:33;;;;;;;4.10;1.98;;;;;;;;;;5026958;28;20057;-76
2023/08/27 07:09:59;;;;;;;4.15;1.92;;;;;;;;;;5044327;28;20041;-77
2023/08/27 07:12:24;;;;;;;4.13;2.25;;;;;;;;;;5038568;28;20550;-76
2023/08/27 07:14:49;;;;;;;4.20;1.95;;;;;;;;;;5035127;28;20514;-76
2023/08/27 07:17:15;;;;;;;3.80;1.88;;;;;;;;;;5037146;28;20534;-76
2023/08/27 07:19:41;;;;;;;3.22;1.67;;;;;;;;;;5032768;28;20028;-77
2023/08/27 07:22:07;;;;;;;4.20;2.30;;;;;;;;;;5028012;28;20032;-77
2023/08/27 07:24:33;;;;;;;6.13;1.85;;;;;;;;;;5036312;28;20036;-76
2023/08/27 07:26:58;;;;;;;3.60;1.65;;;;;;;;;;5025472;28;20053;-76
2023/08/27 07:29:24;;;;;;;3.50;2.00;;;;;;;;;;5030533;28;20032;-77
2023/08/27 07:31:49;;;;;;;4.10;1.70;;;;;;;;;;5035182;28;20484;-76
2023/08/27 07:34:15;;;;;;;3.90;1.48;;;;;;;;;;5035070;28;20705;-77
2023/08/27 07:36:40;;;;;;;2.97;1.63;;;;;;;;;;5038135;28;20037;-76
2023/08/27 07:39:05;;;;;;;3.10;1.60;;;;;;;;;;5044309;28;20047;-76
2023/08/27 07:41:31;;;;;;;3.95;2.00;;;;;;;;;;5042070;28;20116;-77
2023/08/27 07:43:56;;;;;;;3.72;1.55;;;;;;;;;;5045955;28;20037;-77
2023/08/27 07:46:23;;;;;;;4.07;1.55;;;;;;;;;;5035371;28;20508;-77
2023/08/27 07:48:48;;;;;;;3.35;1.50;;;;;;;;;;5035342;28;20027;-76
2023/08/27 07:51:14;;;;;;;2.72;1.35;;;;;;;;;;5045144;28;20414;-77
2023/08/27 07:53:39;;;;;;;2.80;1.60;;;;;;;;;;5027025;28;20407;-77
2023/08/27 07:56:04;;;;;;;3.50;1.70;;;;;;;;;;5042784;28;20128;-77
2023/08/27 07:58:31;;;;;;;4.28;1.85;;;;;;;;;;5034890;28;20310;-77
2023/08/27 08:00:57;;;;;;;3.77;1.67;;;;;;;;;;5033018;28;20024;-77
2023/08/27 08:03:23;;;;;;;3.15;1.40;;;;;;;;;;5018125;28;20669;-77
2023/08/27 08:05:48;;;;;;;3.10;1.27;;;;;;;;;;5056882;28;20020;-77
2023/08/27 08:08:13;;;;;;;2.70;1.60;;;;;;;;;;5034789;28;20040;-77
2023/08/27 08:10:39;;;;;;;4.57;1.60;;;;;;;;;;5041608;28;20041;-76
2023/08/27 08:13:04;;;;;;;2.90;1.40;;;;;;;;;;5051753;28;20271;-77
2023/08/27 08:15:29;;;;;;;2.65;1.65;;;;;;;;;;5053413;28;20325;-77
2023/08/27 08:17:54;;;;;;;4.60;1.75;;;;;;;;;;5055663;28;20041;-77
2023/08/27 08:20:20;;;;;;;4.75;1.88;;;;;;;;;;5049509;28;20100;-77
2023/08/27 08:22:45;;;;;;;3.07;1.73;;;;;;;;;;5049659;28;20037;-76
2023/08/27 08:25:10;;;;;;;3.23;1.77;;;;;;;;;;5045417;28;20272;-78
2023/08/27 08:27:35;;;;;;;4.77;1.73;;;;;;;;;;5032489;28;20284;-77
2023/08/27 08:30:01;;;;;;;3.10;1.90;;;;;;;;;;5032173;28;20268;-77
2023/08/27 08:32:26;;;;;;;4.07;2.10;;;;;;;;;;5050441;28;20064;-77
2023/08/27 08:34:53;;;;;;;4.70;1.90;;;;;;;;;;5033729;28;20037;-77
2023/08/27 08:37:19;;;;;;;5.65;2.15;;;;;;;;;;5051240;28;20710;-77
2023/08/27 08:39:44;;;;;;;3.65;1.83;;;;;;;;;;5057217;28;20032;-78
2023/08/27 08:42:28;;;;;;;3.05;1.70;;;;;;;;;;5039495;28;20089;-78
2023/08/27 08:45:00;;;;;;;3.45;1.80;;;;;;;;;;5051024;28;20021;-78
2023/08/27 08:47:26;;;;;;;3.55;1.92;;;;;;;;;;5025687;28;20049;-79
2023/08/27 08:49:53;;;;;;;3.65;1.88;;;;;;;;;;5043686;28;20028;-78
2023/08/27 08:52:21;;;;;;;5.85;2.13;;;;;;;;;;5037500;28;20029;-78
2023/08/27 08:54:49;;;;;;;4.32;2.25;;;;;;;;;;5057336;28;20017;-79
2023/08/27 08:57:15;;;;;;;5.78;2.05;;;;;;;;;;5050840;28;20037;-78
2023/08/27 08:59:40;;;;;;;3.58;2.00;;;;;;;;;;5044950;28;20048;-78
2023/08/27 09:02:08;;;;;;;3.78;2.03;;;;;;;;;;5052475;28;20029;-78
2023/08/27 09:04:34;;;;;;;4.20;2.20;;;;;;;;;;5052465;28;20030;-78
2023/08/27 09:07:00;;;;;;;4.40;1.98;;;;;;;;;;5030643;28;20043;-78
2023/08/27 09:09:26;;;;;;;4.72;1.92;;;;;;;;;;5051248;28;20033;-79
2023/08/27 09:11:51;;;;;;;3.67;2.03;;;;;;;;;;5047362;28;20021;-78
2023/08/27 09:14:19;;;;;;;5.43;2.28;;;;;;;;;;5037583;28;20537;-78
2023/08/27 09:16:44;;;;;;;4.25;1.92;;;;;;;;;;5052279;28;20043;-78
2023/08/27 09:19:10;;;;;;;4.00;2.30;;;;;;;;;;5051489;28;20032;-78
2023/08/27 09:21:35;;;;;;;4.57;2.17;;;;;;;;;;5051341;28;20292;-78
2023/08/27 09:24:00;;;;;;;3.78;2.00;;;;;;;;;;5051785;28;20267;-78
2023/08/27 09:26:26;;;;;;;5.43;2.42;;;;;;;;;;5056256;28;20033;-79
2023/08/27 09:28:52;;;;;;;4.03;2.22;;;;;;;;;;5041164;28;20321;-79
2023/08/27 09:31:37;;;;;;;3.45;2.10;;;;;;;;;;5036427;28;20040;-77
2023/08/27 09:34:03;;;;;;;9.35;2.25;;;;;;;;;;5042322;28;20109;-78
2023/08/27 09:36:28;;;;;;;3.95;2.03;;;;;;;;;;5035506;28;20079;-78
2023/08/27 09:38:53;;;;;;;2.80;1.80;;;;;;;;;;5048781;28;20688;-78
2023/08/27 09:41:20;;;;;;;4.23;2.17;;;;;;;;;;5040486;28;20638;-78
2023/08/27 09:43:52;;;;;;;4.65;1.83;;;;;;;;;;5034609;28;20263;-78
2023/08/27 09:46:17;;;;;;;6.80;2.90;;;;;;;;;;5045250;28;20040;-78
2023/08/27 09:48:42;;;;;;;3.60;1.98;;;;;;;;;;5046675;28;20383;-79
2023/08/27 09:51:09;;;;;;;4.53;2.33;;;;;;;;;;5045517;28;20096;-78
2023/08/27 09:53:34;;;;;;;3.63;2.15;;;;;;;;;;5040491;28;20039;-78
2023/08/27 09:56:02;;;;;;;4.13;2.28;;;;;;;;;;5044646;28;20045;-78
2023/08/27 09:58:27;;;;;;;4.22;2.50;;;;;;;;;;5037985;28;20037;-78
2023/08/27 10:00:59;;;;;;;4.63;1.80;;;;;;;;;;5043940;28;20191;-78
2023/08/27 10:03:25;;;;;;;3.90;2.08;;;;;;;;;;5030411;28;20037;-79
2023/08/27 10:05:51;;;;;;;4.72;2.60;;;;;;;;;;5040827;28;20508;-78
2023/08/27 10:08:16;;;;;;;4.10;1.98;;;;;;;;;;5054890;28;20055;-79
2023/08/27 10:10:41;;;;;;;3.90;2.33;;;;;;;;;;5047814;28;20025;-78
2023/08/27 10:13:07;;;;;;;3.22;2.42;;;;;;;;;;5044374;28;20279;-78
2023/08/27 10:15:35;;;;;;;5.88;2.80;;;;;;;;;;5046866;28;20519;-79
2023/08/27 10:18:02;;;;;;;4.38;1.83;;;;;;;;;;5052241;28;20049;-79
2023/08/27 10:20:28;;;;;;;4.97;2.75;;;;;;;;;;5049091;28;20037;-79
2023/08/27 10:22:55;;;;;;;3.50;2.00;;;;;;;;;;5052899;28;20388;-79
2023/08/27 10:25:21;;;;;;;5.55;2.20;;;;;;;;;;5050811;28;20033;-79
2023/08/27 10:27:48;;;;;;;5.05;2.60;;;;;;;;;;5051932;28;20443;-79
2023/08/27 10:30:14;;;;;;;4.40;2.47;;;;;;;;;;5032899;28;20029;-79
2023/08/27 10:32:39;;;;;;;3.60;2.30;;;;;;;;;;5038235;28;20640;-78
2023/08/27 10:35:05;;;;;;;4.07;2.28;;;;;;;;;;5034732;28;20108;-79
2023/08/27 10:37:31;;;;;;;4.72;2.75;;;;;;;;;;5054269;28;20036;-79
2023/08/27 10:39:58;;;;;;;5.43;2.70;;;;;;;;;;5045224;28;20039;-78
2023/08/27 10:42:33;;;;;;;4.03;2.63;;;;;;;;;;5039478;28;20116;-78
2023/08/27 10:45:18;;;;;;;7.32;2.45;;;;;;;;;;5045920;28;20648;-78
2023/08/27 10:48:21;;;;;;;5.03;2.90;;;;;;;;;;5047658;28;20017;-78
2023/08/27 10:50:55;;;;;;;4.75;2.83;;;;;;;;;;5053438;28;20021;-79
2023/08/27 10:53:20;;;;;;;5.15;2.80;;;;;;;;;;5024292;28;20037;-78
2023/08/27 10:55:52;;;;;;;4.38;2.75;;;;;;;;;;5036941;28;20085;-79
2023/08/27 10:58:25;;;;;;;4.70;2.88;;;;;;;;;;5024302;28;20064;-79
2023/08/27 11:01:03;;;;;;;5.22;2.70;;;;;;;;;;5041416;28;20044;-78
2023/08/27 11:03:48;;;;;;;5.15;2.90;;;;;;;;;;5048358;28;20062;-79
2023/08/27 11:06:14;;;;;;;4.30;2.90;;;;;;;;;;5033939;28;20041;-79
2023/08/27 11:08:42;;;;;;;6.03;3.40;;;;;;;;;;5049735;28;20473;-79
2023/08/27 11:11:13;;;;;;;7.07;3.63;;;;;;;;;;5049170;28;20021;-79
2023/08/27 11:13:41;;;;;;;5.97;3.13;;;;;;;;;;5051139;28;20029;-79
2023/08/27 11:16:09;;;;;;;4.95;2.72;;;;;;;;;;5034256;28;20029;-79
2023/08/27 11:18:45;;;;;;;4.63;2.75;;;;;;;;;;5052583;28;20029;-79
2023/08/27 11:21:20;;;;;;;5.20;2.97;;;;;;;;;;5047371;28;20683;-79
2023/08/27 11:24:05;;;;;;;4.97;3.15;;;;;;;;;;5051672;28;20102;-79
2023/08/27 11:26:30;;;;;;;5.18;3.10;;;;;;;;;;5043042;28;20030;-79
2023/08/27 11:28:55;;;;;;;3.80;2.42;;;;;;;;;;5045889;28;20035;-79
2023/08/27 11:31:21;;;;;;;5.93;2.47;;;;;;;;;;5046586;28;20025;-79
2023/08/27 11:33:46;;;;;;;4.78;2.65;;;;;;;;;;5047439;28;20317;-78
2023/08/27 11:36:11;;;;;;;6.43;2.80;;;;;;;;;;5042867;28;20472;-78
2023/08/27 11:38:37;;;;;;;5.80;3.30;;;;;;;;;;5044357;28;20087;-79
2023/08/27 11:41:04;;;;;;;4.40;3.00;;;;;;;;;;5039426;28;20276;-79
2023/08/27 11:43:29;;;;;;;4.53;2.50;;;;;;;;;;5029725;28;20383;-78
2023/08/27 11:45:54;;;;;;;5.05;2.17;;;;;;;;;;5046038;28;20060;-79
2023/08/27 11:48:19;;;;;;;3.63;2.47;;;;;;;;;;5049603;28;20037;-79
2023/08/27 11:50:45;;;;;;;3.77;2.60;;;;;;;;;;5045974;28;20280;-79
2023/08/27 11:53:10;;;;;;;4.63;2.58;;;;;;;;;;5046515;28;20315;-79
2023/08/27 11:55:36;;;;;;;7.35;2.67;;;;;;;;;;5037471;28;20034;-79
2023/08/27 11:58:01;;;;;;;4.65;2.60;;;;;;;;;;5046260;28;20144;-78
2023/08/27 12:00:26;;;;;;;5.18;2.67;;;;;;;;;;5035336;28;20412;-78
2023/08/27 12:02:53;;;;;;;5.32;2.67;;;;;;;;;;5047023;28;20063;-78
2023/08/27 12:05:18;;;;;;;5.38;2.70;;;;;;;;;;5051329;28;20029;-78
2023/08/27 12:07:43;;;;;;;3.42;2.10;;;;;;;;;;5043274;28;20025;-78
2023/08/27 12:10:11;;;;;;;4.00;2.05;;;;;;;;;;5043506;28;20028;-78
2023/08/27 12:12:40;;;;;;;3.78;2.30;;;;;;;;;;5032883;28;20404;-78
2023/08/27 12:15:06;;;;;;;5.38;2.63;;;;;;;;;;5043257;28;20038;-78
2023/08/27 12:17:33;;;;;;;3.53;2.00;;;;;;;;;;5044506;28;20104;-78
2023/08/27 12:19:58;;;;;;;5.50;2.33;;;;;;;;;;5040649;28;20044;-78
2023/08/27 12:22:24;;;;;;;4.70;2.22;;;;;;;;;;5026838;28;20030;-78
2023/08/27 12:24:49;;;;;;;3.50;2.10;;;;;;;;;;5046943;28;20108;-78
2023/08/27 12:27:19;;;;;;;4.23;1.87;;;;;;;;;;5032278;28;20030;-78
2023/08/27 12:29:45;;;;;;;3.60;1.80;;;;;;;;;;5040394;28;20272;-78
2023/08/27 12:32:17;;;;;;;3.47;1.73;;;;;;;;;;5047347;28;20037;-78
2023/08/27 12:34:42;;;;;;;;;;;;;;;;;;5032149;28;20041;-78
2023/08/27 12:37:09;;;;;;;5.47;2.07;;;;;;;;;;5038139;28;19920;-79
2023/08/27 12:39:37;;;;;;;4.22;2.03;;;;;;;;;;5047300;28;20033;-78
2023/08/27 12:42:02;;;;;;;3.97;1.70;;;;;;;;;;5014578;28;20025;-78
2023/08/27 12:44:28;;;;;;;4.18;1.52;;;;;;;;;;5048524;28;20095;-78
2023/08/27 12:46:53;;;;;;;3.55;1.77;;;;;;;;;;5046861;28;20033;-78
2023/08/27 12:49:19;;;;;;;4.70;1.67;;;;;;;;;;5034686;28;20076;-79
2023/08/27 12:51:45;;;;;;;4.38;1.88;;;;;;;;;;5048441;28;20815;-78
2023/08/27 12:54:10;;;;;;;3.80;1.65;;;;;;;;;;5034667;28;20041;-78
2023/08/27 12:56:35;;;;;;;6.95;2.08;;;;;;;;;;5036627;28;20039;-77
2023/08/27 12:59:00;;;;;;;3.75;2.05;;;;;;;;;;5045756;28;20057;-78
2023/08/27 13:01:26;;;;;;;5.13;2.20;;;;;;;;;;5048017;28;20041;-79
2023/08/27 13:03:51;;;;;;;3.58;1.75;;;;;;;;;;5039797;28;20333;-78
2023/08/27 13:06:17;;;;;;;2.97;1.60;;;;;;;;;;5044063;28;20083;-78
2023/08/27 13:08:42;;;;;;;4.10;2.15;;;;;;;;;;5032617;28;20515;-78
2023/08/27 13:11:07;;;;;;;3.97;1.87;;;;;;;;;;5042271;28;20450;-78
2023/08/27 13:13:32;;;;;;;3.10;1.30;;;;;;;;;;5046958;28;20766;-79
2023/08/27 13:15:58;;;;;;;2.80;1.57;;;;;;;;;;5053164;28;20816;-78
2023/08/27 13:18:23;;;;;;;4.20;1.80;;;;;;;;;;5054860;28;20286;-78
2023/08/27 13:20:48;;;;;;;5.63;1.88;;;;;;;;;;5054943;28;20142;-78
2023/08/27 13:23:14;;;;;;;2.97;1.58;;;;;;;;;;5055509;28;20059;-78
2023/08/27 13:25:39;;;;;;;5.60;2.17;;;;;;;;;;5050144;28;20484;-78
2023/08/27 13:28:05;;;;;;;3.95;1.77;;;;;;;;;;5042790;28;20041;-78
2023/08/27 13:30:31;;;;;;;3.78;1.55;;;;;;;;;;5048837;28;20048;-78
2023/08/27 13:32:56;;;;;;;3.13;1.60;;;;;;;;;;5028618;28;20092;-78
2023/08/27 13:35:22;;;;;;;3.10;1.63;;;;;;;;;;5043164;28;20446;-79
2023/08/27 13:37:47;;;;;;;5.07;1.92;;;;;;;;;;5029100;28;20780;-78
2023/08/27 13:40:13;;;;;;;4.30;1.67;;;;;;;;;;5048132;28;20108;-78
2023/08/27 13:42:38;;;;;;;3.80;1.55;;;;;;;;;;5038163;28;20542;-78
2023/08/27 13:45:03;;;;;;;3.07;1.50;;;;;;;;;;5057082;28;20025;-78
2023/08/27 13:47:29;;;;;;;3.10;1.70;;;;;;;;;;5045334;28;20762;-78
2023/08/27 13:49:54;;;;;;;3.90;1.58;;;;;;;;;;5047764;28;20033;-78
2023/08/27 13:52:19;;;;;;;4.90;2.10;;;;;;;;;;5045147;28;20048;-78
2023/08/27 13:54:46;;;;;;;3.37;1.57;;;;;;;;;;5048577;28;20797;-78
2023/08/27 13:57:12;;;;;;;2.78;1.73;;;;;;;;;;5029486;28;20267;-78
2023/08/27 13:59:37;;;;;;;5.32;2.40;;;;;;;;;;5044343;28;20044;-78
2023/08/27 14:02:03;;;;;;;4.63;2.17;;;;;;;;;;5042913;28;20034;-78
2023/08/27 14:04:28;;;;;;;4.63;2.08;;;;;;;;;;5050855;28;20275;-78
2023/08/27 14:06:54;;;;;;;5.20;2.25;;;;;;;;;;5053869;28;20032;-78
2023/08/27 14:09:20;;;;;;;3.45;1.95;;;;;;;;;;5046291;28;20037;-78
2023/08/27 14:11:45;;;;;;;5.32;2.25;;;;;;;;;;5052674;28;20029;-78
2023/08/27 14:14:10;;;;;;;6.75;2.33;;;;;;;;;;5046039;28;20496;-78
2023/08/27 14:16:35;;;;;;;5.53;2.13;;;;;;;;;;5044387;28;20404;-78
2023/08/27 14:19:00;;;;;;;5.35;2.40;;;;;;;;;;5049696;28;20274;-78
2023/08/27 14:21:26;;;;;;;5.53;2.70;;;;;;;;;;5045549;28;20037;-78
2023/08/27 14:23:51;;;;;;;4.40;2.42;;;;;;;;;;5044201;28;20263;-77
2023/08/27 14:26:16;;;;;;;3.85;2.17;;;;;;;;;;5044096;28;20030;-77
2023/08/27 14:28:43;;;;;;;4.70;2.07;;;;;;;;;;5045202;28;20035;-77
2023/08/27 14:31:08;;;;;;;5.05;2.38;;;;;;;;;;5032815;28;20647;-77
2023/08/27 14:33:33;;;;;;;4.63;2.40;;;;;;;;;;5041873;28;20032;-77
2023/08/27 14:35:58;;;;;;;4.87;2.63;;;;;;;;;;5044670;28;20036;-78
2023/08/27 14:38:24;;;;;;;7.65;2.97;;;;;;;;;;5045064;28;20765;-78